createdAt,value
2019-02-19T00:00:33.209Z,0
2019-02-19T00:01:33.621Z,0
2019-02-19T00:02:34.311Z,0
2019-02-19T00:03:35.565Z,0
2019-02-19T00:04:34.982Z,0
2019-02-19T00:05:36.233Z,0
2019-02-19T00:06:36.331Z,0
2019-02-19T00:07:36.745Z,0
2019-02-19T00:08:37.880Z,0
2019-02-19T00:09:38.846Z,0
2019-02-19T00:10:38.986Z,0
2019-02-19T00:11:39.677Z,0
2019-02-19T00:12:41.121Z,0
2019-02-19T00:13:41.808Z,0
2019-02-19T00:14:42.226Z,0
2019-02-19T00:15:42.642Z,0
2019-02-19T00:16:43.483Z,0
2019-02-19T00:17:44.171Z,0
2019-02-19T00:18:45.860Z,0
2019-02-19T00:19:45.997Z,0
2019-02-19T00:20:47.408Z,0
2019-02-19T00:21:48.378Z,0
2019-02-19T00:22:49.081Z,0
2019-02-19T00:23:49.226Z,0
2019-02-19T00:24:50.955Z,0
2019-02-19T00:25:50.647Z,0
2019-02-19T00:26:52.078Z,0
2019-02-19T00:27:53.321Z,0
2019-02-19T00:28:53.738Z,0
2019-02-19T00:29:54.153Z,0
2019-02-19T00:30:55.861Z,0
2019-02-19T00:31:56.543Z,0
2019-02-19T00:32:57.234Z,0
2019-02-19T00:33:58.482Z,0
2019-02-19T00:34:59.466Z,0
2019-02-19T00:35:59.876Z,0
2019-02-19T00:37:00.443Z,0
2019-02-19T00:38:01.418Z,0
2019-02-19T00:39:01.832Z,0
2019-02-19T00:40:03.919Z,0
2019-02-19T00:41:03.334Z,0
2019-02-19T00:42:04.044Z,0
2019-02-19T00:43:05.570Z,0
2019-02-19T00:44:06.266Z,0
2019-02-19T00:45:07.234Z,0
2019-02-19T00:46:08.483Z,0
2019-02-19T00:47:10.439Z,0
2019-02-19T00:48:09.853Z,0
2019-02-19T00:49:10.279Z,0
2019-02-19T00:50:11.249Z,0
2019-02-19T00:51:11.697Z,0
2019-02-19T00:52:12.390Z,0
2019-02-19T00:53:12.524Z,0
2019-02-19T00:54:14.044Z,0
2019-02-19T00:55:13.483Z,0
2019-02-19T00:56:14.173Z,0
2019-02-19T00:57:15.563Z,0
2019-02-19T00:58:16.538Z,0
2019-02-19T00:59:17.513Z,0
2019-02-19T01:00:18.204Z,0
2019-02-19T01:01:18.628Z,0
2019-02-19T01:02:19.316Z,0
2019-02-19T01:03:20.002Z,0
2019-02-19T01:04:20.969Z,0
2019-02-19T01:05:21.384Z,0
2019-02-19T01:06:22.555Z,0
2019-02-19T01:07:24.206Z,0
2019-02-19T01:08:23.893Z,0
2019-02-19T01:09:24.626Z,0
2019-02-19T01:10:25.314Z,0
2019-02-19T01:11:26.013Z,0
2019-02-19T01:12:26.149Z,0
2019-02-19T01:13:26.851Z,0
2019-02-19T01:14:27.302Z,0
2019-02-19T01:15:29.555Z,0
2019-02-19T01:16:30.246Z,0
2019-02-19T01:17:31.178Z,0
2019-02-19T01:18:31.152Z,0
2019-02-19T01:19:31.845Z,0
2019-02-19T01:20:31.532Z,0
2019-02-19T01:21:32.499Z,0
2019-02-19T01:22:33.196Z,0
2019-02-19T01:23:34.165Z,0
2019-02-19T01:24:35.142Z,0
2019-02-19T01:25:35.553Z,0
2019-02-19T01:26:36.798Z,0
2019-02-19T01:27:36.899Z,0
2019-02-19T01:28:37.329Z,0
2019-02-19T01:29:37.741Z,0
2019-02-19T01:30:39.157Z,0
2019-02-19T01:31:39.291Z,0
2019-02-19T01:32:41.024Z,0
2019-02-19T01:33:41.725Z,0
2019-02-19T01:34:42.136Z,0
2019-02-19T01:35:42.828Z,0
2019-02-19T01:36:43.241Z,0
2019-02-19T01:37:43.817Z,0
2019-02-19T01:38:44.507Z,0
2019-02-19T01:39:44.922Z,0
2019-02-19T01:40:45.894Z,0
2019-02-19T01:41:46.618Z,0
2019-02-19T01:42:47.586Z,0
2019-02-19T01:43:48.557Z,0
2019-02-19T01:44:49.040Z,0
2019-02-19T01:45:50.007Z,0
2019-02-19T01:46:50.975Z,0
2019-02-19T01:47:52.072Z,0
2019-02-19T01:48:53.041Z,0
2019-02-19T01:49:53.460Z,0
2019-02-19T01:50:54.433Z,0
2019-02-19T01:51:55.398Z,0
2019-02-19T01:52:56.084Z,0
2019-02-19T01:53:56.772Z,0
2019-02-19T01:54:57.197Z,0
2019-02-19T01:55:57.888Z,0
2019-02-19T01:56:58.298Z,0
2019-02-19T01:57:59.118Z,0
2019-02-19T01:58:59.808Z,0
2019-02-19T02:00:01.247Z,0
2019-02-19T02:01:01.937Z,0
2019-02-19T02:02:02.353Z,0
2019-02-19T02:03:03.324Z,0
2019-02-19T02:04:04.581Z,0
2019-02-19T02:05:05.553Z,0
2019-02-19T02:06:06.238Z,0
2019-02-19T02:07:06.443Z,0
2019-02-19T02:08:08.239Z,0
2019-02-19T02:09:09.508Z,0
2019-02-19T02:10:09.211Z,0
2019-02-19T02:11:09.355Z,0
2019-02-19T02:12:10.886Z,0
2019-02-19T02:13:11.022Z,0
2019-02-19T02:14:12.434Z,0
2019-02-19T02:15:12.842Z,0
2019-02-19T02:16:13.307Z,0
2019-02-19T02:17:13.718Z,0
2019-02-19T02:18:15.093Z,0
2019-02-19T02:19:15.817Z,0
2019-02-19T02:20:17.137Z,0
2019-02-19T02:21:17.104Z,0
2019-02-19T02:22:17.794Z,0
2019-02-19T02:23:18.483Z,0
2019-02-19T02:24:20.283Z,0
2019-02-19T02:25:19.995Z,0
2019-02-19T02:26:20.974Z,0
2019-02-19T02:27:21.380Z,0
2019-02-19T02:28:22.775Z,0
2019-02-19T02:29:23.515Z,0
2019-02-19T02:30:25.039Z,0
2019-02-19T02:31:26.144Z,0
2019-02-19T02:32:26.672Z,0
2019-02-19T02:33:26.638Z,0
2019-02-19T02:34:27.606Z,0
2019-02-19T02:35:28.580Z,0
2019-02-19T02:36:29.871Z,0
2019-02-19T02:37:29.299Z,0
2019-02-19T02:38:30.114Z,0
2019-02-19T02:39:32.209Z,0
2019-02-19T02:40:32.750Z,0
2019-02-19T02:41:32.464Z,0
2019-02-19T02:42:33.214Z,0
2019-02-19T02:43:34.459Z,0
2019-02-19T02:44:35.182Z,0
2019-02-19T02:45:36.711Z,0
2019-02-19T02:46:37.513Z,0
2019-02-19T02:47:37.811Z,0
2019-02-19T02:48:38.778Z,0
2019-02-19T02:49:38.748Z,0
2019-02-19T02:50:39.715Z,0
2019-02-19T02:51:40.967Z,0
2019-02-19T02:52:41.379Z,0
2019-02-19T02:53:41.799Z,0
2019-02-19T02:54:42.220Z,0
2019-02-19T02:55:42.913Z,0
2019-02-19T02:56:44.173Z,0
2019-02-19T02:57:45.140Z,0
2019-02-19T02:58:45.277Z,0
2019-02-19T02:59:45.693Z,0
2019-02-19T03:00:46.421Z,0
2019-02-19T03:01:47.390Z,0
2019-02-19T03:02:48.940Z,0
2019-02-19T03:03:49.072Z,0
2019-02-19T03:04:50.495Z,0
2019-02-19T03:05:52.195Z,0
2019-02-19T03:06:53.171Z,0
2019-02-19T03:07:52.858Z,0
2019-02-19T03:08:54.061Z,0
2019-02-19T03:09:54.477Z,0
2019-02-19T03:10:55.452Z,0
2019-02-19T03:11:56.444Z,0
2019-02-19T03:12:57.413Z,0
2019-02-19T03:13:57.822Z,0
2019-02-19T03:14:58.788Z,0
2019-02-19T03:16:05.518Z,0
2019-02-19T03:16:11.242Z,0
2019-02-19T03:17:12.350Z,0
2019-02-19T03:18:15.225Z,0
2019-02-19T03:19:14.472Z,0
2019-02-19T03:20:14.891Z,0
2019-02-19T03:21:15.855Z,0
2019-02-19T03:22:16.003Z,0
2019-02-19T03:23:16.694Z,0
2019-02-19T03:24:18.213Z,0
2019-02-19T03:25:19.179Z,0
2019-02-19T03:26:19.334Z,0
2019-02-19T03:27:20.048Z,0
2019-02-19T03:28:20.473Z,0
2019-02-19T03:29:20.883Z,0
2019-02-19T03:30:23.128Z,0
2019-02-19T03:31:23.392Z,0
2019-02-19T03:32:23.941Z,0
2019-02-19T03:33:25.805Z,0
2019-02-19T03:34:25.157Z,0
2019-02-19T03:35:25.709Z,0
2019-02-19T03:36:26.704Z,0
2019-02-19T03:37:27.365Z,0
2019-02-19T03:38:28.057Z,0
2019-02-19T03:39:29.304Z,0
2019-02-19T03:40:30.833Z,0
2019-02-19T03:41:30.831Z,0
2019-02-19T03:42:31.245Z,0
2019-02-19T03:43:31.680Z,0
2019-02-19T03:44:34.247Z,0
2019-02-19T03:45:34.245Z,0
2019-02-19T03:46:35.771Z,0
2019-02-19T03:47:35.910Z,0
2019-02-19T03:48:37.164Z,0
2019-02-19T03:49:37.925Z,0
2019-02-19T03:50:38.614Z,0
2019-02-19T03:51:39.360Z,0
2019-02-19T03:52:39.783Z,0
2019-02-19T03:53:41.033Z,0
2019-02-19T03:54:42.290Z,0
2019-02-19T03:55:42.986Z,0
2019-02-19T03:56:43.954Z,0
2019-02-19T03:57:44.073Z,0
2019-02-19T03:58:45.065Z,0
2019-02-19T03:59:46.310Z,0
2019-02-19T04:00:46.005Z,0
2019-02-19T04:01:46.976Z,0
2019-02-19T04:02:47.942Z,0
2019-02-19T04:03:48.916Z,0
2019-02-19T04:04:48.952Z,0
2019-02-19T04:05:49.664Z,0
2019-02-19T04:06:50.908Z,0
2019-02-19T04:07:50.292Z,0
2019-02-19T04:08:51.987Z,0
2019-02-19T04:09:52.949Z,0
2019-02-19T04:10:53.368Z,0
2019-02-19T04:11:54.338Z,0
2019-02-19T04:12:55.025Z,0
2019-02-19T04:13:56.002Z,0
2019-02-19T04:14:57.268Z,0
2019-02-19T04:15:57.977Z,0
2019-02-19T04:16:59.017Z,0
2019-02-19T04:17:59.414Z,0
2019-02-19T04:19:00.680Z,0
2019-02-19T04:20:01.933Z,0
2019-02-19T04:21:02.625Z,0
2019-02-19T04:22:03.869Z,0
2019-02-19T04:23:04.331Z,0
2019-02-19T04:24:05.619Z,0
2019-02-19T04:25:06.321Z,0
2019-02-19T04:26:07.579Z,0
2019-02-19T04:27:08.115Z,0
2019-02-19T04:28:08.491Z,0
2019-02-19T04:29:09.463Z,0
2019-02-19T04:30:10.711Z,0
2019-02-19T04:31:11.247Z,0
2019-02-19T04:32:10.662Z,0
2019-02-19T04:33:13.006Z,0
2019-02-19T04:34:13.552Z,0
2019-02-19T04:35:13.254Z,0
2019-02-19T04:36:14.230Z,0
2019-02-19T04:37:15.191Z,0
2019-02-19T04:38:16.653Z,0
2019-02-19T04:39:16.338Z,0
2019-02-19T04:40:17.056Z,0
2019-02-19T04:41:18.906Z,0
2019-02-19T04:42:19.537Z,0
2019-02-19T04:43:19.263Z,0
2019-02-19T04:44:20.501Z,0
2019-02-19T04:45:21.509Z,0
2019-02-19T04:46:33.987Z,0
2019-02-19T04:47:34.661Z,0
2019-02-19T04:48:35.371Z,0
2019-02-19T04:49:36.106Z,0
2019-02-19T04:50:37.076Z,0
2019-02-19T04:51:38.084Z,0
2019-02-19T04:52:38.627Z,0
2019-02-19T04:53:38.043Z,0
2019-02-19T04:54:39.035Z,0
2019-02-19T04:55:40.068Z,0
2019-02-19T04:56:41.066Z,0
2019-02-19T04:57:42.054Z,0
2019-02-19T04:58:43.033Z,0
2019-02-19T04:59:44.281Z,0
2019-02-19T05:00:44.530Z,0
2019-02-19T05:01:45.525Z,0
2019-02-19T05:02:45.969Z,0
2019-02-19T05:03:47.504Z,0
2019-02-19T05:04:47.759Z,0
2019-02-19T05:05:48.027Z,0
2019-02-19T05:06:49.024Z,0
2019-02-19T05:07:50.150Z,0
2019-02-19T05:08:51.404Z,0
2019-02-19T05:09:51.816Z,0
2019-02-19T05:10:52.508Z,0
2019-02-19T05:11:53.754Z,0
2019-02-19T05:12:54.444Z,0
2019-02-19T05:13:55.970Z,0
2019-02-19T05:14:56.257Z,0
2019-02-19T05:15:55.953Z,0
2019-02-19T05:16:56.365Z,0
2019-02-19T05:17:57.479Z,0
2019-02-19T05:18:58.048Z,0
2019-02-19T05:19:59.302Z,0
2019-02-19T05:20:59.272Z,0
2019-02-19T05:21:59.972Z,0
2019-02-19T05:23:01.660Z,0
2019-02-19T05:24:02.633Z,0
2019-02-19T05:25:03.673Z,0
2019-02-19T05:26:04.384Z,0
2019-02-19T05:27:05.080Z,0
2019-02-19T05:28:05.768Z,0
2019-02-19T05:29:07.044Z,0
2019-02-19T05:30:06.751Z,0
2019-02-19T05:31:07.717Z,0
2019-02-19T05:32:08.962Z,0
2019-02-19T05:33:09.934Z,0
2019-02-19T05:34:10.936Z,0
2019-02-19T05:35:11.927Z,0
2019-02-19T05:36:11.950Z,0
2019-02-19T05:37:12.650Z,0
2019-02-19T05:38:13.902Z,0
2019-02-19T05:39:14.147Z,0
2019-02-19T05:40:14.559Z,0
2019-02-19T05:41:15.811Z,0
2019-02-19T05:42:16.225Z,0
2019-02-19T05:43:17.800Z,0
2019-02-19T05:44:18.492Z,0
2019-02-19T05:45:19.185Z,0
2019-02-19T05:46:19.876Z,0
2019-02-19T05:47:20.858Z,0
2019-02-19T05:48:21.814Z,0
2019-02-19T05:49:22.293Z,0
2019-02-19T05:50:22.990Z,0
2019-02-19T05:51:23.706Z,0
2019-02-19T05:52:24.116Z,0
2019-02-19T05:53:24.810Z,0
2019-02-19T05:54:27.274Z,0
2019-02-19T05:55:26.519Z,0
2019-02-19T05:56:27.522Z,0
2019-02-19T05:57:28.222Z,0
2019-02-19T05:58:28.598Z,0
2019-02-19T05:59:29.010Z,0
2019-02-19T06:00:31.092Z,0
2019-02-19T06:01:30.537Z,0
2019-02-19T06:02:31.233Z,0
2019-02-19T06:03:32.208Z,0
2019-02-19T06:04:32.914Z,0
2019-02-19T06:05:33.329Z,0
2019-02-19T06:06:33.758Z,0
2019-02-19T06:07:34.722Z,5.63
2019-02-19T06:08:35.826Z,5.63
2019-02-19T06:09:36.241Z,5.63
2019-02-19T06:10:37.492Z,5.63
2019-02-19T06:11:38.474Z,5.63
2019-02-19T06:12:39.494Z,5.63
2019-02-19T06:13:40.778Z,5.63
2019-02-19T06:14:41.192Z,11.25
2019-02-19T06:15:42.163Z,11.25
2019-02-19T06:16:43.172Z,11.25
2019-02-19T06:17:43.589Z,11.25
2019-02-19T06:18:44.906Z,16.88
2019-02-19T06:19:44.606Z,16.88
2019-02-19T06:20:46.168Z,16.88
2019-02-19T06:21:46.138Z,16.88
2019-02-19T06:22:47.662Z,22.5
2019-02-19T06:23:48.930Z,22.5
2019-02-19T06:24:49.943Z,22.5
2019-02-19T06:25:50.088Z,22.5
2019-02-19T06:26:51.061Z,28.13
2019-02-19T06:27:51.310Z,28.13
2019-02-19T06:28:52.017Z,28.13
2019-02-19T06:29:51.711Z,33.75
2019-02-19T06:30:52.748Z,33.75
2019-02-19T06:31:53.173Z,33.75
2019-02-19T06:32:53.941Z,39.38
2019-02-19T06:33:55.579Z,61.88
2019-02-19T06:34:55.816Z,73.13
2019-02-19T06:35:55.783Z,67.5
2019-02-19T06:36:57.400Z,73.13
2019-02-19T06:37:58.230Z,67.5
2019-02-19T06:38:57.386Z,90
2019-02-19T06:39:58.123Z,112.5
2019-02-19T06:40:58.816Z,123.75
2019-02-19T06:41:59.393Z,101.25
2019-02-19T06:42:59.896Z,61.88
2019-02-19T06:44:00.906Z,67.5
2019-02-19T06:45:02.394Z,78.75
2019-02-19T06:46:02.983Z,123.75
2019-02-19T06:47:09.272Z,112.5
2019-02-19T06:47:15.513Z,106.88
2019-02-19T06:48:16.060Z,140.63
2019-02-19T06:49:17.782Z,213.75
2019-02-19T06:50:18.240Z,225
2019-02-19T06:51:18.940Z,258.75
2019-02-19T06:52:19.913Z,292.5
2019-02-19T06:53:20.628Z,219.38
2019-02-19T06:54:20.770Z,157.5
2019-02-19T06:55:21.751Z,180
2019-02-19T06:56:22.172Z,208.13
2019-02-19T06:57:22.591Z,225
2019-02-19T06:58:23.744Z,303.75
2019-02-19T06:59:24.721Z,376.88
2019-02-19T07:00:25.420Z,360
2019-02-19T07:01:25.845Z,298.13
2019-02-19T07:02:27.002Z,258.75
2019-02-19T07:03:27.243Z,213.75
2019-02-19T07:04:28.577Z,208.13
2019-02-19T07:05:28.762Z,241.88
2019-02-19T07:06:31.147Z,191.25
2019-02-19T07:07:31.758Z,163.13
2019-02-19T07:08:31.587Z,140.63
2019-02-19T07:09:32.982Z,123.75
2019-02-19T07:10:48.276Z,129.38
2019-02-19T07:11:46.664Z,146.25
2019-02-19T07:12:52.483Z,146.25
2019-02-19T07:13:06.644Z,146.25
2019-02-19T07:13:16.218Z,140.63
2019-02-19T07:14:14.065Z,140.63
2019-02-19T07:15:13.952Z,180
2019-02-19T07:16:14.666Z,270
2019-02-19T07:17:18.778Z,309.38
2019-02-19T07:18:21.038Z,298.13
2019-02-19T07:19:18.925Z,376.88
2019-02-19T07:20:19.364Z,365.63
2019-02-19T07:21:19.786Z,202.5
2019-02-19T07:22:21.034Z,157.5
2019-02-19T07:23:21.456Z,230.63
2019-02-19T07:24:08.356Z,348.75
2019-02-19T07:25:07.575Z,528.75
2019-02-19T07:26:07.301Z,776.25
2019-02-19T07:27:08.045Z,793.13
2019-02-19T07:28:08.752Z,618.75
2019-02-19T07:29:10.317Z,652.5
2019-02-19T07:30:11.329Z,753.75
2019-02-19T07:31:11.309Z,736.88
2019-02-19T07:32:12.562Z,691.88
2019-02-19T07:33:13.268Z,652.5
2019-02-19T07:34:13.691Z,888.75
2019-02-19T07:35:16.372Z,1130.63
2019-02-19T07:36:15.093Z,1209.38
2019-02-19T07:37:16.133Z,1220.63
2019-02-19T07:38:20.652Z,1276.88
2019-02-19T07:39:19.367Z,1113.75
2019-02-19T07:40:19.905Z,562.5
2019-02-19T07:41:20.989Z,230.63
2019-02-19T07:42:22.870Z,230.63
2019-02-19T07:43:22.671Z,281.25
2019-02-19T07:44:25.229Z,444.38
2019-02-19T07:45:24.526Z,613.13
2019-02-19T07:46:26.097Z,753.75
2019-02-19T07:47:27.208Z,776.25
2019-02-19T07:48:28.453Z,686.25
2019-02-19T07:49:29.201Z,545.63
2019-02-19T07:50:30.369Z,658.13
2019-02-19T07:51:30.802Z,1141.88
2019-02-19T07:52:35.415Z,1141.88
2019-02-19T07:53:33.751Z,1063.13
2019-02-19T07:54:35.975Z,973.13
2019-02-19T07:55:36.357Z,905.63
2019-02-19T07:56:36.817Z,618.75
2019-02-19T07:57:38.106Z,573.75
2019-02-19T07:58:38.603Z,466.88
2019-02-19T07:59:39.303Z,326.25
2019-02-19T08:00:39.741Z,303.75
2019-02-19T08:01:40.244Z,517.5
2019-02-19T08:02:40.974Z,916.88
2019-02-19T08:03:42.269Z,1012.5
2019-02-19T08:04:43.689Z,956.25
2019-02-19T08:05:45.965Z,990
2019-02-19T08:06:45.882Z,1051.88
2019-02-19T08:07:46.603Z,781.88
2019-02-19T08:08:47.039Z,804.38
2019-02-19T08:09:47.787Z,607.5
2019-02-19T08:10:48.505Z,736.88
2019-02-19T08:11:48.940Z,1209.38
2019-02-19T08:12:49.373Z,1445.63
2019-02-19T08:13:49.840Z,1400.63
2019-02-19T08:14:52.967Z,1383.75
2019-02-19T08:15:52.419Z,1344.38
2019-02-19T08:16:53.127Z,1209.38
2019-02-19T08:17:54.085Z,1513.13
2019-02-19T08:18:56.971Z,1203.75
2019-02-19T08:19:56.183Z,877.5
2019-02-19T08:20:57.166Z,585
2019-02-19T08:22:00.497Z,607.5
2019-02-19T08:22:59.634Z,1215
2019-02-19T08:24:06.105Z,1490.63
2019-02-19T08:24:17.734Z,1507.5
2019-02-19T08:24:30.151Z,1518.75
2019-02-19T08:24:37.522Z,1518.75
2019-02-19T08:25:40.594Z,1895.63
2019-02-19T08:26:37.030Z,1980
2019-02-19T08:27:38.567Z,1985.63
2019-02-19T08:28:42.083Z,1963.13
2019-02-19T08:29:39.842Z,1991.25
2019-02-19T08:30:44.574Z,1861.88
2019-02-19T08:30:58.433Z,1845
2019-02-19T08:31:10.586Z,1850.63
2019-02-19T08:31:22.053Z,1884.38
2019-02-19T08:31:30.118Z,1906.88
2019-02-19T08:32:29.214Z,2013.75
2019-02-19T08:33:36.183Z,1878.75
2019-02-19T08:33:48.303Z,1873.13
2019-02-19T08:33:58.470Z,1890
2019-02-19T08:35:01.786Z,2019.38
2019-02-19T08:35:07.429Z,2047.5
2019-02-19T08:36:08.277Z,2154.38
2019-02-19T08:37:09.286Z,1276.88
2019-02-19T08:38:09.992Z,376.88
2019-02-19T08:39:10.151Z,303.75
2019-02-19T08:40:11.629Z,303.75
2019-02-19T08:41:12.904Z,343.13
2019-02-19T08:42:13.360Z,551.25
2019-02-19T08:43:14.077Z,821.25
2019-02-19T08:44:15.536Z,1119.38
2019-02-19T08:45:20.412Z,1479.38
2019-02-19T08:46:18.436Z,1299.38
2019-02-19T08:47:18.925Z,1209.38
2019-02-19T08:48:23.882Z,1006.88
2019-02-19T08:48:33.430Z,956.25
2019-02-19T08:49:32.273Z,922.5
2019-02-19T08:50:32.665Z,961.88
2019-02-19T08:51:32.958Z,1175.63
2019-02-19T08:52:33.515Z,1350
2019-02-19T08:53:33.994Z,1406.25
2019-02-19T08:54:34.707Z,1383.75
2019-02-19T08:55:36.987Z,1355.63
2019-02-19T08:56:55.391Z,1479.38
2019-02-19T08:57:09.586Z,1411.88
2019-02-19T08:57:21.724Z,1372.5
2019-02-19T08:57:45.909Z,1186.88
2019-02-19T08:57:56.029Z,1108.13
2019-02-19T08:58:53.179Z,1091.25
2019-02-19T08:59:57.055Z,1108.13
2019-02-19T09:00:54.797Z,1231.88
2019-02-19T09:01:59.774Z,1282.5
2019-02-19T09:03:13.640Z,1361.25
2019-02-19T09:04:15.581Z,1260
2019-02-19T09:04:22.112Z,1254.38
2019-02-19T09:05:25.389Z,1316.25
2019-02-19T09:06:24.847Z,1254.38
2019-02-19T09:07:24.003Z,1119.38
2019-02-19T09:08:25.448Z,1051.88
2019-02-19T09:09:26.759Z,1074.38
2019-02-19T09:10:27.208Z,697.5
2019-02-19T09:11:29.209Z,461.25
2019-02-19T09:12:29.791Z,393.75
2019-02-19T09:13:30.220Z,421.88
2019-02-19T09:14:31.521Z,444.38
2019-02-19T09:15:31.990Z,455.63
2019-02-19T09:16:36.443Z,472.5
2019-02-19T09:17:37.686Z,500.63
2019-02-19T09:18:42.061Z,506.25
2019-02-19T09:19:07.623Z,495
2019-02-19T09:19:21.012Z,489.38
2019-02-19T09:19:33.040Z,500.63
2019-02-19T09:19:39.738Z,506.25
2019-02-19T09:20:43.318Z,748.13
2019-02-19T09:21:48.137Z,1738.13
2019-02-19T09:21:54.569Z,1822.5
2019-02-19T09:22:57.741Z,2289.38
2019-02-19T09:23:58.423Z,2216.25
2019-02-19T09:24:58.068Z,2373.75
2019-02-19T09:26:01.595Z,2520
2019-02-19T09:26:59.301Z,2593.13
2019-02-19T09:27:59.756Z,2677.5
2019-02-19T09:29:01.057Z,2508.75
2019-02-19T09:30:00.688Z,2362.5
2019-02-19T09:31:02.586Z,2486.25
2019-02-19T09:32:02.344Z,2182.5
2019-02-19T09:33:02.756Z,2025
2019-02-19T09:34:02.742Z,2064.38
2019-02-19T09:35:03.463Z,1935
2019-02-19T09:36:04.387Z,2255.63
2019-02-19T09:37:04.688Z,2390.63
2019-02-19T09:38:11.992Z,2531.25
2019-02-19T09:38:25.132Z,2520
2019-02-19T09:38:37.124Z,2553.75
2019-02-19T09:38:46.112Z,2576.25
2019-02-19T09:39:50.934Z,2103.75
2019-02-19T09:39:58.655Z,2154.38
2019-02-19T09:41:01.645Z,2435.63
2019-02-19T09:42:00.768Z,2216.25
2019-02-19T09:43:02.081Z,2694.38
2019-02-19T09:44:19.924Z,2863.13
2019-02-19T09:45:16.129Z,2885.63
2019-02-19T09:46:18.531Z,2840.63
2019-02-19T09:47:21.311Z,2587.5
2019-02-19T09:47:30.454Z,2553.75
2019-02-19T09:48:30.800Z,1991.25
2019-02-19T09:49:32.075Z,1254.38
2019-02-19T09:50:31.858Z,1085.63
2019-02-19T09:51:32.572Z,838.13
2019-02-19T09:52:37.951Z,894.38
2019-02-19T09:52:49.854Z,956.25
2019-02-19T09:53:15.716Z,1051.88
2019-02-19T09:53:27.597Z,1051.88
2019-02-19T09:53:35.699Z,1035
2019-02-19T09:54:34.784Z,1080
2019-02-19T09:55:35.497Z,1203.75
2019-02-19T09:56:36.934Z,1321.88
2019-02-19T09:57:38.447Z,1423.13
2019-02-19T09:58:38.748Z,1929.38
2019-02-19T09:59:39.737Z,1991.25
2019-02-19T10:00:41.589Z,1659.38
2019-02-19T10:01:42.160Z,1310.63
2019-02-19T10:02:45.589Z,1338.75
2019-02-19T10:03:43.325Z,1563.75
2019-02-19T10:04:45.294Z,2030.63
2019-02-19T10:05:45.019Z,1861.88
2019-02-19T10:06:46.313Z,1923.75
2019-02-19T10:07:47.591Z,1856.25
2019-02-19T10:08:47.591Z,1946.25
2019-02-19T10:09:47.027Z,1614.38
2019-02-19T10:10:48.475Z,1811.25
2019-02-19T10:11:49.467Z,2283.75
2019-02-19T10:12:50.885Z,2261.25
2019-02-19T10:13:51.045Z,2137.5
2019-02-19T10:14:52.241Z,2250
2019-02-19T10:15:55.863Z,2261.25
2019-02-19T10:16:54.084Z,2227.5
2019-02-19T10:17:55.936Z,2441.25
2019-02-19T10:18:55.089Z,2728.13
2019-02-19T10:19:56.817Z,2722.5
2019-02-19T10:20:57.309Z,2801.25
2019-02-19T10:21:57.749Z,2728.13
2019-02-19T10:22:59.744Z,2700
2019-02-19T10:24:00.459Z,2750.63
2019-02-19T10:25:06.130Z,2801.25
2019-02-19T10:25:17.108Z,2790
2019-02-19T10:26:14.814Z,2773.13
2019-02-19T10:27:15.891Z,2818.13
2019-02-19T10:28:16.328Z,2874.38
2019-02-19T10:29:17.318Z,2874.38
2019-02-19T10:30:18.081Z,2851.88
2019-02-19T10:31:19.387Z,2868.75
2019-02-19T10:32:19.964Z,2868.75
2019-02-19T10:33:21.999Z,2868.75
2019-02-19T10:34:21.907Z,2908.13
2019-02-19T10:35:21.559Z,2964.38
2019-02-19T10:36:24.408Z,2947.5
2019-02-19T10:37:23.908Z,2891.25
2019-02-19T10:38:24.547Z,2846.25
2019-02-19T10:39:25.541Z,2835
2019-02-19T10:40:26.274Z,2823.75
2019-02-19T10:41:26.930Z,2902.5
2019-02-19T10:42:27.568Z,2964.38
2019-02-19T10:43:28.755Z,2975.63
2019-02-19T10:44:28.993Z,2964.38
2019-02-19T10:45:30.163Z,3026.25
2019-02-19T10:46:31.312Z,3020.63
2019-02-19T10:47:45.459Z,2975.63
2019-02-19T10:48:45.861Z,2947.5
2019-02-19T10:49:47.613Z,2880
2019-02-19T10:50:53.979Z,2840.63
2019-02-19T10:51:01.284Z,2840.63
2019-02-19T10:52:04.065Z,2885.63
2019-02-19T10:53:06.295Z,2936.25
2019-02-19T10:54:05.320Z,2998.13
2019-02-19T10:55:06.061Z,2970
2019-02-19T10:56:07.919Z,2896.88
2019-02-19T10:57:07.076Z,2795.63
2019-02-19T10:58:08.505Z,2756.25
2019-02-19T10:59:10.802Z,2784.38
2019-02-19T11:00:11.099Z,2818.13
2019-02-19T11:01:11.818Z,2795.63
2019-02-19T11:02:12.707Z,2840.63
2019-02-19T11:03:14.777Z,2829.38
2019-02-19T11:04:13.929Z,2840.63
2019-02-19T11:05:15.098Z,2846.25
2019-02-19T11:06:19.433Z,2818.13
2019-02-19T11:07:21.581Z,2806.88
2019-02-19T11:07:33.374Z,2773.13
2019-02-19T11:08:35.631Z,2733.75
2019-02-19T11:08:45.312Z,2745
2019-02-19T11:09:46.532Z,2773.13
2019-02-19T11:10:43.961Z,2632.5
2019-02-19T11:11:49.101Z,2385
2019-02-19T11:12:00.937Z,2182.5
2019-02-19T11:12:57.324Z,2030.63
2019-02-19T11:13:58.044Z,2340
2019-02-19T11:14:58.765Z,2261.25
2019-02-19T11:15:58.925Z,2103.75
2019-02-19T11:17:00.926Z,2205
2019-02-19T11:18:01.371Z,2041.88
2019-02-19T11:19:02.330Z,1878.75
2019-02-19T11:20:03.048Z,1963.13
2019-02-19T11:21:03.351Z,1878.75
2019-02-19T11:22:04.804Z,1794.38
2019-02-19T11:23:05.517Z,1923.75
2019-02-19T11:24:05.078Z,2098.13
2019-02-19T11:25:06.080Z,2064.38
2019-02-19T11:26:08.055Z,1845
2019-02-19T11:27:07.783Z,1676.25
2019-02-19T11:28:08.965Z,1681.88
2019-02-19T11:29:09.972Z,1580.63
2019-02-19T11:30:13.122Z,1327.5
2019-02-19T11:31:15.681Z,1231.88
2019-02-19T11:32:27.965Z,1293.75
2019-02-19T11:33:38.342Z,1305
2019-02-19T11:34:37.469Z,1113.75
2019-02-19T11:35:38.747Z,1653.75
2019-02-19T11:36:44.537Z,2250
2019-02-19T11:36:50.690Z,2210.63
2019-02-19T11:37:51.866Z,1428.75
2019-02-19T11:38:55.134Z,1417.5
2019-02-19T11:39:58.394Z,2323.13
2019-02-19T11:40:56.757Z,2126.25
2019-02-19T11:41:56.579Z,2030.63
2019-02-19T11:42:57.015Z,1828.13
2019-02-19T11:43:58.647Z,2126.25
2019-02-19T11:44:58.080Z,2413.13
2019-02-19T11:45:58.521Z,2070
2019-02-19T11:46:59.090Z,1951.88
2019-02-19T11:48:00.605Z,1968.75
2019-02-19T11:49:01.319Z,1906.88
2019-02-19T11:50:03.249Z,1670.63
2019-02-19T11:51:03.523Z,956.25
2019-02-19T11:52:03.570Z,1096.88
2019-02-19T11:53:03.729Z,1822.5
2019-02-19T11:54:04.484Z,1670.63
2019-02-19T11:55:05.350Z,1423.13
2019-02-19T11:56:06.346Z,1406.25
2019-02-19T11:57:11.740Z,1181.25
2019-02-19T11:57:19.856Z,1243.13
2019-02-19T11:58:20.008Z,855
2019-02-19T11:59:22.355Z,1001.25
2019-02-19T12:00:22.508Z,1704.38
2019-02-19T12:01:26.850Z,1625.63
2019-02-19T12:01:34.350Z,1586.25
2019-02-19T12:02:38.673Z,1586.25
2019-02-19T12:03:37.433Z,2008.13
2019-02-19T12:04:40.773Z,2081.25
2019-02-19T12:05:39.259Z,2300.63
2019-02-19T12:06:41.017Z,2340
2019-02-19T12:07:41.513Z,2396.25
2019-02-19T12:08:43.073Z,2227.5
2019-02-19T12:09:46.467Z,2154.38
2019-02-19T12:10:46.911Z,2075.63
2019-02-19T12:11:45.246Z,2008.13
2019-02-19T12:12:46.846Z,1991.25
2019-02-19T12:13:47.870Z,1755
2019-02-19T12:14:49.071Z,1738.13
2019-02-19T12:15:49.121Z,2126.25
2019-02-19T12:16:49.589Z,1614.38
2019-02-19T12:17:50.631Z,1175.63
2019-02-19T12:18:51.339Z,1209.38
2019-02-19T12:19:51.789Z,1383.75
2019-02-19T12:20:53.257Z,1591.88
2019-02-19T12:21:53.703Z,2081.25
2019-02-19T12:22:58.199Z,2013.75
2019-02-19T12:23:55.895Z,1670.63
2019-02-19T12:24:56.071Z,1215
2019-02-19T12:25:57.502Z,1198.13
2019-02-19T12:26:58.037Z,1642.5
2019-02-19T12:27:58.225Z,1591.88
2019-02-19T12:29:00.725Z,1670.63
2019-02-19T12:30:03.304Z,1833.75
2019-02-19T12:31:07.844Z,1996.88
2019-02-19T12:31:17.155Z,2053.13
2019-02-19T12:32:20.426Z,2238.75
2019-02-19T12:32:28.364Z,2221.88
2019-02-19T12:33:28.108Z,2210.63
2019-02-19T12:34:35.321Z,1867.5
2019-02-19T12:34:49.745Z,1845
2019-02-19T12:35:01.325Z,1811.25
2019-02-19T12:35:09.956Z,1665
2019-02-19T12:36:09.730Z,1760.63
2019-02-19T12:37:10.141Z,1608.75
2019-02-19T12:38:10.601Z,1895.63
2019-02-19T12:39:14.655Z,1861.88
2019-02-19T12:40:13.521Z,1620
2019-02-19T12:41:14.334Z,1507.5
2019-02-19T12:42:15.117Z,1518.75
2019-02-19T12:43:15.851Z,1670.63
2019-02-19T12:44:16.291Z,1670.63
2019-02-19T12:45:17.331Z,1732.5
2019-02-19T12:46:17.768Z,1777.5
2019-02-19T12:47:18.760Z,1636.88
2019-02-19T12:48:19.208Z,1631.25
2019-02-19T12:49:23.058Z,1726.88
2019-02-19T12:50:21.207Z,1861.88
2019-02-19T12:51:35.097Z,1867.5
2019-02-19T12:52:35.406Z,2283.75
2019-02-19T12:53:36.572Z,1091.25
2019-02-19T12:54:40.533Z,2255.63
2019-02-19T12:55:57.130Z,2430
2019-02-19T12:56:53.194Z,2469.38
2019-02-19T12:57:54.564Z,2356.88
2019-02-19T12:58:54.975Z,2306.25